Esmond, Illinois
Current Conditions -  °F | °C
As of 3:35 PM on Monday 24 Nov 2014 (Local Time) from KRPJ Reporting Station
Haze Haze  
Wind Chill:   Ceiling: 1100
Heat Index: 26°   Visibility: 4mi
Dew Point: 24°   Wind: 30mph
Humidity: 92%   Direction: 260°W
Pressure: 29.56"   Gusts: 33mph
Location:  42.03°N, 88.94°W
Report Text: KRPJ 242135Z AUTO 26026G29KT 4SM BR BKN011 OVC017 M03/M05 A2956 RMK AO2 T10351047
Loading
Personal Weather Stations






























Interactive Weather Map New forecast layout! Learn more

10-Day Weather Forecast

Advertisements
Track Severe Weather on mobile